createdAt,value
2022-07-28T00:00:52.519Z,1.90
2022-07-28T00:03:21.492Z,2.20
2022-07-28T00:05:50.465Z,2.30
2022-07-28T00:08:19.464Z,2.20
2022-07-28T00:10:48.629Z,2.07
2022-07-28T00:13:17.554Z,2.10
2022-07-28T00:15:46.632Z,2.30
2022-07-28T00:18:16.946Z,2.10
2022-07-28T00:20:45.896Z,1.90
2022-07-28T00:23:14.795Z,2.40
2022-07-28T00:25:43.759Z,1.83
2022-07-28T00:28:14.507Z,2.17
2022-07-28T00:30:43.498Z,1.88
2022-07-28T00:33:12.375Z,2.22
2022-07-28T00:35:42.930Z,1.93
2022-07-28T00:38:17.539Z,2.00
2022-07-28T00:41:03.857Z,2.25
2022-07-28T00:43:32.873Z,2.10
2022-07-28T00:46:01.718Z,1.92
2022-07-28T00:48:30.650Z,1.80
2022-07-28T00:51:00.939Z,1.70
2022-07-28T00:53:48.006Z,1.95
2022-07-28T00:56:17.097Z,1.80
2022-07-28T00:58:47.398Z,2.15
2022-07-28T01:01:17.971Z,2.00
2022-07-28T01:03:47.350Z,1.80
2022-07-28T01:06:22.071Z,2.10
2022-07-28T01:08:54.709Z,1.80
2022-07-28T01:11:27.379Z,2.05
2022-07-28T01:13:59.668Z,2.10
2022-07-28T01:16:28.887Z,1.80
2022-07-28T01:18:59.991Z,1.95
2022-07-28T01:21:30.712Z,1.90
2022-07-28T01:24:03.901Z,1.90
2022-07-28T01:26:49.838Z,1.83
2022-07-28T01:29:23.225Z,1.80
2022-07-28T01:32:12.820Z,2.00
2022-07-28T04:16:37.806Z,2.70
2022-07-28T04:19:06.883Z,5.07
2022-07-28T04:21:35.719Z,2.72
2022-07-28T04:24:04.712Z,2.53
2022-07-28T04:26:33.531Z,2.63
2022-07-28T04:29:03.362Z,2.60
2022-07-28T04:31:32.583Z,3.33
2022-07-28T04:34:02.982Z,2.80
2022-07-28T04:36:32.608Z,2.63
2022-07-28T04:39:01.493Z,3.03
2022-07-28T04:41:30.461Z,2.40
2022-07-28T04:43:59.581Z,2.50
2022-07-28T04:46:28.776Z,2.53
2022-07-28T04:48:57.819Z,2.53
2022-07-28T04:51:28.232Z,2.80
2022-07-28T04:53:57.295Z,2.47
2022-07-28T04:56:27.274Z,2.57
2022-07-28T04:58:56.503Z,2.60
2022-07-28T05:01:25.447Z,3.30
2022-07-28T05:03:54.493Z,2.72
2022-07-28T05:06:23.351Z,2.33
2022-07-28T05:08:53.781Z,2.33
2022-07-28T05:11:22.582Z,3.08
2022-07-28T05:13:51.589Z,2.92
2022-07-28T05:16:20.791Z,2.83
2022-07-28T05:18:49.762Z,3.50
2022-07-28T05:21:22.252Z,2.23
2022-07-28T05:23:51.932Z,2.50
2022-07-28T05:26:22.257Z,2.38
2022-07-28T05:28:51.148Z,2.60
2022-07-28T05:31:20.228Z,2.70
2022-07-28T05:33:49.306Z,2.40
2022-07-28T05:36:21.157Z,2.20
2022-07-28T05:38:50.274Z,2.70
2022-07-28T05:41:19.284Z,2.70
2022-07-28T05:43:49.644Z,2.63
2022-07-28T05:46:18.627Z,2.60
2022-07-28T05:48:47.669Z,2.50
2022-07-28T05:51:16.827Z,2.72
2022-07-28T05:53:45.675Z,2.25
2022-07-28T05:56:14.601Z,2.60
2022-07-28T05:58:43.539Z,2.40
2022-07-28T06:01:13.940Z,2.70
2022-07-28T06:03:42.871Z,2.55
2022-07-28T06:06:16.408Z,3.00
2022-07-28T06:08:46.431Z,2.70
2022-07-28T06:11:22.115Z,2.73
2022-07-28T06:13:52.292Z,2.75
2022-07-28T06:16:23.351Z,2.55
2022-07-28T06:18:52.596Z,2.60
2022-07-28T06:21:23.076Z,2.40
2022-07-28T06:23:52.104Z,2.20
2022-07-28T06:26:23.455Z,2.38
2022-07-28T06:28:53.002Z,2.60
2022-07-28T06:31:23.504Z,2.38
2022-07-28T06:33:52.563Z,2.55
2022-07-28T06:36:21.515Z,2.30
2022-07-28T06:38:50.506Z,2.17
2022-07-28T06:41:19.355Z,2.13
2022-07-28T06:43:48.345Z,2.80
2022-07-28T06:46:19.819Z,2.30
2022-07-28T06:48:50.556Z,2.20
2022-07-28T06:51:20.474Z,2.28
2022-07-28T06:53:49.654Z,2.42
2022-07-28T06:56:21.437Z,2.35
2022-07-28T06:58:50.703Z,2.20
2022-07-28T07:01:19.624Z,2.40
2022-07-28T07:03:50.257Z,2.25
2022-07-28T07:06:19.338Z,2.90
2022-07-28T07:08:48.915Z,2.38
2022-07-28T07:11:17.867Z,2.60
2022-07-28T07:13:46.729Z,2.30
2022-07-28T07:16:15.734Z,2.53
2022-07-28T07:18:44.652Z,2.80
2022-07-28T07:21:14.975Z,2.17
2022-07-28T07:23:43.948Z,2.03
2022-07-28T07:26:14.132Z,2.20
2022-07-28T07:28:43.052Z,2.85
2022-07-28T07:31:12.026Z,2.20
2022-07-28T07:33:41.087Z,2.20
2022-07-28T07:36:09.887Z,2.17
2022-07-28T07:38:40.216Z,2.40
2022-07-28T07:41:09.254Z,2.63
2022-07-28T07:43:42.382Z,2.88
2022-07-28T07:46:14.911Z,3.00
2022-07-28T07:48:43.794Z,2.47
2022-07-28T07:51:15.483Z,2.57
2022-07-28T07:53:46.320Z,2.40
2022-07-28T07:56:16.111Z,2.42
2022-07-28T07:58:45.111Z,2.60
2022-07-28T08:01:14.014Z,2.35
2022-07-28T08:03:43.924Z,2.50
2022-07-28T08:06:12.979Z,2.30
2022-07-28T08:08:48.485Z,2.58
2022-07-28T08:11:17.624Z,2.55
2022-07-28T08:13:46.498Z,2.75
2022-07-28T08:16:33.800Z,2.40
2022-07-28T08:19:02.735Z,2.40
2022-07-28T08:21:31.541Z,2.50
2022-07-28T08:24:01.990Z,2.67
2022-07-28T08:26:30.894Z,2.45
2022-07-28T08:28:59.717Z,2.70
2022-07-28T08:31:28.709Z,2.42
2022-07-28T08:33:58.775Z,2.33
2022-07-28T08:36:28.002Z,2.38
2022-07-28T08:38:57.020Z,2.70
2022-07-28T08:41:33.783Z,2.77
2022-07-28T08:44:03.316Z,2.78
2022-07-28T08:46:34.007Z,3.00
2022-07-28T08:49:03.031Z,2.70
2022-07-28T08:51:32.098Z,2.95
2022-07-28T08:54:01.099Z,2.87
2022-07-28T08:56:31.391Z,3.30
2022-07-28T08:59:00.498Z,2.78
2022-07-28T09:01:38.624Z,3.30
2022-07-28T09:04:08.688Z,3.47
2022-07-28T09:06:42.548Z,3.00
2022-07-28T09:09:35.879Z,3.47
2022-07-28T09:12:07.407Z,3.30
2022-07-28T09:14:36.392Z,3.10
2022-07-28T09:17:06.106Z,3.33
2022-07-28T09:19:35.859Z,3.00
2022-07-28T09:22:04.845Z,2.92
2022-07-28T09:24:34.691Z,2.72
2022-07-28T09:27:03.886Z,2.78
2022-07-28T09:29:34.355Z,2.70
2022-07-28T09:32:03.292Z,2.53
2022-07-28T09:34:40.343Z,2.80
2022-07-28T09:37:09.619Z,2.65
2022-07-28T09:39:38.604Z,2.70
2022-07-28T09:42:07.848Z,3.03
2022-07-28T09:44:38.147Z,2.87
2022-07-28T09:47:22.303Z,2.60
2022-07-28T09:49:51.568Z,2.53
2022-07-28T09:52:28.552Z,2.78
2022-07-28T09:55:03.530Z,2.53
2022-07-28T09:57:34.409Z,2.67
2022-07-28T10:00:09.074Z,2.78
2022-07-28T10:02:40.644Z,2.70
2022-07-28T10:05:10.216Z,2.55
2022-07-28T10:07:39.280Z,2.40
2022-07-28T10:10:08.726Z,2.90
2022-07-28T10:12:37.972Z,2.45
2022-07-28T10:15:34.934Z,2.65
2022-07-28T10:18:04.229Z,2.70
2022-07-28T10:20:33.807Z,2.40
2022-07-28T10:23:03.267Z,2.80
2022-07-28T10:25:32.349Z,2.85
2022-07-28T10:28:01.585Z,3.05
2022-07-28T10:30:32.494Z,2.63
2022-07-28T10:33:01.472Z,2.80
2022-07-28T10:35:30.376Z,2.30
2022-07-28T10:38:00.397Z,2.55
2022-07-28T10:44:48.229Z,2.72
2022-07-28T10:47:20.058Z,2.72
2022-07-28T10:49:49.449Z,2.50
2022-07-28T10:55:09.719Z,3.30
2022-07-28T10:57:38.923Z,2.55
2022-07-28T11:00:13.677Z,2.92
2022-07-28T11:02:47.067Z,2.50
2022-07-28T11:05:35.411Z,2.40
2022-07-28T11:08:05.555Z,2.30
2022-07-28T11:10:44.678Z,2.70
2022-07-28T11:13:28.848Z,3.00
2022-07-28T11:15:58.601Z,3.30
2022-07-28T11:18:31.095Z,2.90
2022-07-28T11:21:09.438Z,11.35
2022-07-28T11:23:39.004Z,3.28
2022-07-28T11:26:25.584Z,2.85
2022-07-28T11:29:15.118Z,2.60
2022-07-28T11:31:59.100Z,3.15
2022-07-28T11:34:29.527Z,21.30
2022-07-28T11:37:04.677Z,3.95
2022-07-28T11:39:42.981Z,3.13
2022-07-28T11:42:25.235Z,3.00
2022-07-28T11:44:54.933Z,3.08
2022-07-28T11:47:24.618Z,4.05
2022-07-28T11:50:11.870Z,3.28
2022-07-28T11:52:42.586Z,3.03
2022-07-28T11:55:11.453Z,3.00
2022-07-28T11:57:40.855Z,3.00
2022-07-28T12:00:10.360Z,3.10
2022-07-28T12:02:39.626Z,3.60
2022-07-28T12:05:10.135Z,2.92
2022-07-28T12:07:40.236Z,3.27
2022-07-28T12:10:52.300Z,3.63
2022-07-28T12:13:34.725Z,3.20
2022-07-28T12:16:03.711Z,3.55
2022-07-28T12:18:32.578Z,2.97
2022-07-28T12:21:05.391Z,3.10
2022-07-28T12:23:46.055Z,3.20
2022-07-28T12:26:40.738Z,3.22
2022-07-28T12:29:12.444Z,3.17
2022-07-28T12:31:52.183Z,2.80
2022-07-28T12:34:26.781Z,3.63
2022-07-28T12:36:58.455Z,3.78
2022-07-28T12:39:27.503Z,3.70
2022-07-28T12:42:05.008Z,3.25
2022-07-28T12:44:54.599Z,2.70
2022-07-28T12:47:26.731Z,3.03
2022-07-28T12:50:15.542Z,2.70
2022-07-28T12:52:44.542Z,3.20
2022-07-28T12:55:23.739Z,3.50
2022-07-28T12:57:54.197Z,3.13
2022-07-28T13:00:23.781Z,3.37
2022-07-28T13:02:55.360Z,3.30
2022-07-28T13:05:31.857Z,3.30
2022-07-28T13:09:53.193Z,3.78
2022-07-28T13:12:31.032Z,3.17
2022-07-28T13:15:00.680Z,6.25
2022-07-28T13:17:31.855Z,4.28
2022-07-28T13:20:13.376Z,2.78
2022-07-28T13:22:45.585Z,2.58
2022-07-28T13:25:16.187Z,3.50
2022-07-28T13:27:45.130Z,3.20
2022-07-28T13:30:14.187Z,4.00
2022-07-28T13:32:43.658Z,3.45
2022-07-28T13:35:15.180Z,3.20
2022-07-28T13:37:44.910Z,3.25
2022-07-28T13:40:14.326Z,3.25
2022-07-28T13:42:53.393Z,2.95
2022-07-28T13:45:30.226Z,3.47
2022-07-28T13:47:59.383Z,3.08
2022-07-28T13:50:28.425Z,3.58
2022-07-28T13:53:15.594Z,3.00
2022-07-28T13:55:44.587Z,3.30
2022-07-28T13:58:15.835Z,2.90
2022-07-28T14:00:46.876Z,2.95
2022-07-28T14:03:15.764Z,3.50
2022-07-28T14:05:44.636Z,3.10
2022-07-28T14:08:18.924Z,3.33
2022-07-28T14:11:06.295Z,3.35
2022-07-28T14:13:38.553Z,3.70
2022-07-28T14:16:12.349Z,2.92
2022-07-28T14:18:43.311Z,3.10
2022-07-28T14:21:12.205Z,2.80
2022-07-28T14:23:41.166Z,3.10
2022-07-28T14:26:34.535Z,3.13
2022-07-28T14:29:00.664Z,3.00
2022-07-28T14:31:29.959Z,3.15
2022-07-28T14:33:59.167Z,3.33
2022-07-28T14:36:28.034Z,3.72
2022-07-28T14:38:57.218Z,3.22
2022-07-28T14:41:26.223Z,3.42
2022-07-28T14:43:56.561Z,2.95
2022-07-28T14:46:29.715Z,3.50
2022-07-28T14:48:59.002Z,3.38
2022-07-28T14:51:27.904Z,3.30
2022-07-28T14:53:58.061Z,3.40
2022-07-28T14:56:26.910Z,3.50
2022-07-28T14:59:14.457Z,3.30
2022-07-28T15:01:44.897Z,3.97
2022-07-28T15:04:14.147Z,3.20
2022-07-28T15:06:43.563Z,3.50
2022-07-28T15:09:12.707Z,3.60
2022-07-28T15:11:42.327Z,3.88
2022-07-28T15:14:11.516Z,3.60
2022-07-28T15:16:40.615Z,3.90
2022-07-28T15:19:11.127Z,3.95
2022-07-28T15:21:40.876Z,3.50
2022-07-28T15:24:10.447Z,3.17
2022-07-28T15:26:39.350Z,3.55
2022-07-28T15:29:08.367Z,3.45
2022-07-28T15:31:37.975Z,3.40
2022-07-28T15:34:09.531Z,3.35
2022-07-28T15:36:40.936Z,3.45
2022-07-28T15:39:14.255Z,3.80
2022-07-28T15:41:43.587Z,3.53
2022-07-28T15:44:12.821Z,3.60
2022-07-28T15:46:42.296Z,3.40
2022-07-28T15:49:11.513Z,3.10
2022-07-28T15:51:42.011Z,3.97
2022-07-28T15:54:11.212Z,3.47
2022-07-28T15:56:40.071Z,3.30
2022-07-28T15:59:09.463Z,3.72
2022-07-28T16:01:44.988Z,3.65
2022-07-28T16:04:14.689Z,3.67
2022-07-28T16:07:02.561Z,3.42
2022-07-28T16:09:45.280Z,3.58
2022-07-28T16:12:15.829Z,3.55
2022-07-28T16:14:44.656Z,3.28
2022-07-28T16:17:13.755Z,3.50
2022-07-28T16:19:50.805Z,4.07
2022-07-28T16:22:21.600Z,4.97
2022-07-28T16:24:51.079Z,5.43
2022-07-28T16:27:19.967Z,5.65
2022-07-28T16:29:49.675Z,5.20
2022-07-28T16:32:18.705Z,4.97
2022-07-28T16:34:49.407Z,5.38
2022-07-28T16:37:19.721Z,5.57
2022-07-28T16:39:50.685Z,5.18
2022-07-28T16:42:19.610Z,5.43
2022-07-28T16:44:48.551Z,5.40
2022-07-28T16:47:17.586Z,5.90
2022-07-28T16:49:46.756Z,4.93
2022-07-28T16:52:15.665Z,5.50
2022-07-28T16:54:44.679Z,6.65
2022-07-28T16:57:17.780Z,6.45
2022-07-28T16:59:48.134Z,6.80
2022-07-28T17:02:36.479Z,7.17
2022-07-28T17:05:05.703Z,7.97
2022-07-28T17:07:34.632Z,7.90
2022-07-28T17:10:03.786Z,9.95
2022-07-28T17:12:34.164Z,8.80
2022-07-28T17:15:03.097Z,9.13
2022-07-28T17:17:31.978Z,10.35
2022-07-28T17:20:19.391Z,8.80
2022-07-28T17:22:48.339Z,8.82
2022-07-28T17:28:26.050Z,9.32
2022-07-28T17:30:55.177Z,9.20
2022-07-28T17:33:25.055Z,9.85
2022-07-28T17:35:55.436Z,9.23
2022-07-28T17:38:29.516Z,8.45
2022-07-28T17:41:04.410Z,8.07
2022-07-28T17:43:36.333Z,8.30
2022-07-28T17:46:08.272Z,8.73
2022-07-28T17:48:39.982Z,7.82
2022-07-28T17:51:09.043Z,8.15
2022-07-28T17:53:39.569Z,7.57
2022-07-28T17:56:09.245Z,8.00
2022-07-28T17:58:40.461Z,7.82
2022-07-28T18:01:12.184Z,8.35
2022-07-28T18:03:59.303Z,8.35
2022-07-28T18:06:30.082Z,7.83
2022-07-28T18:09:07.229Z,7.45
2022-07-28T18:11:55.285Z,7.40
2022-07-28T18:14:26.938Z,7.03
2022-07-28T18:16:55.808Z,6.95
2022-07-28T18:19:24.826Z,8.30
2022-07-28T18:21:53.757Z,7.45
2022-07-28T18:24:23.222Z,8.32
2022-07-28T18:26:52.098Z,6.93
2022-07-28T18:29:21.759Z,6.32
2022-07-28T18:31:52.654Z,6.82
2022-07-28T18:34:25.022Z,7.75
2022-07-28T18:36:54.644Z,7.35
2022-07-28T18:39:23.877Z,9.98
2022-07-28T18:41:55.317Z,17.80
2022-07-28T18:44:24.731Z,19.30
2022-07-28T18:46:57.423Z,9.63
2022-07-28T18:49:26.481Z,8.02
2022-07-28T18:51:55.432Z,7.65
2022-07-28T18:54:27.997Z,8.25
2022-07-28T18:56:57.578Z,7.27
2022-07-28T18:59:26.456Z,8.52
2022-07-28T19:01:57.076Z,9.98
2022-07-28T19:04:26.206Z,10.65
2022-07-28T19:06:55.107Z,10.15
2022-07-28T19:09:24.131Z,10.83
2022-07-28T19:11:53.226Z,11.25
2022-07-28T19:14:22.210Z,11.93
2022-07-28T19:16:51.035Z,11.68
2022-07-28T19:19:21.518Z,11.68
2022-07-28T19:21:50.495Z,11.37
2022-07-28T19:24:19.941Z,10.93
2022-07-28T19:26:50.434Z,9.43
2022-07-28T19:29:19.344Z,8.65
2022-07-28T19:31:48.428Z,7.90
2022-07-28T19:34:17.748Z,7.50
2022-07-28T19:36:48.502Z,7.30
2022-07-28T19:39:17.388Z,7.63
2022-07-28T19:41:46.289Z,7.60
2022-07-28T19:44:15.486Z,6.70
2022-07-28T19:46:45.664Z,6.57
2022-07-28T19:49:17.221Z,5.97
2022-07-28T19:51:48.295Z,5.93
2022-07-28T19:54:21.218Z,5.65
2022-07-28T19:56:50.139Z,5.82
2022-07-28T19:59:19.017Z,6.30
2022-07-28T20:01:50.528Z,6.07
2022-07-28T20:04:20.123Z,6.18
2022-07-28T20:06:55.679Z,6.00
2022-07-28T20:09:24.879Z,5.80
2022-07-28T20:11:53.779Z,5.95
2022-07-28T20:14:22.797Z,5.50
2022-07-28T20:16:51.794Z,6.78
2022-07-28T20:19:20.813Z,5.78
2022-07-28T20:21:51.127Z,5.65
2022-07-28T20:24:20.274Z,5.90
2022-07-28T20:26:49.092Z,5.30
2022-07-28T20:29:18.370Z,5.50
2022-07-28T20:31:47.282Z,6.13
2022-07-28T20:34:16.496Z,5.90
2022-07-28T20:36:45.613Z,6.32
2022-07-28T20:39:43.307Z,5.70
2022-07-28T20:42:07.888Z,5.70
2022-07-28T20:44:37.539Z,5.68
2022-07-28T20:47:06.885Z,6.00
2022-07-28T20:49:35.830Z,5.50
2022-07-28T20:52:04.853Z,5.53
2022-07-28T20:54:35.294Z,5.70
2022-07-28T20:57:04.246Z,5.57
2022-07-28T21:02:20.946Z,5.80
2022-07-28T21:04:50.190Z,5.43
2022-07-28T21:07:59.849Z,5.15
2022-07-28T21:10:09.004Z,5.50
2022-07-28T21:12:37.962Z,5.38
2022-07-28T21:15:07.490Z,5.25
2022-07-28T21:17:37.835Z,5.20
2022-07-28T21:20:07.123Z,5.35
2022-07-28T21:22:35.996Z,5.35
2022-07-28T21:25:05.072Z,5.32
2022-07-28T21:27:53.899Z,4.97
2022-07-28T21:30:27.581Z,4.90
2022-07-28T21:32:58.656Z,5.10
2022-07-28T21:35:27.608Z,4.90
2022-07-28T21:37:56.633Z,5.03
2022-07-28T21:40:25.781Z,4.88
2022-07-28T21:42:54.803Z,4.90
2022-07-28T21:45:23.764Z,4.65
2022-07-28T21:47:52.748Z,5.20
2022-07-28T21:50:23.171Z,4.57
2022-07-28T21:52:52.079Z,5.03
2022-07-28T21:55:21.013Z,4.53
2022-07-28T21:57:50.187Z,4.55
2022-07-28T22:00:21.527Z,4.35
2022-07-28T22:02:50.579Z,4.72
2022-07-28T22:05:20.161Z,4.65
2022-07-28T22:07:50.665Z,4.70
2022-07-28T22:10:19.587Z,5.18
2022-07-28T22:12:48.502Z,4.75
2022-07-28T22:15:17.344Z,4.40
2022-07-28T22:17:46.447Z,4.20
2022-07-28T22:20:15.548Z,4.63
2022-07-28T22:22:44.491Z,4.85
2022-07-28T22:25:14.918Z,4.72
2022-07-28T22:27:44.002Z,4.35
2022-07-28T22:30:12.882Z,4.63
2022-07-28T22:32:41.825Z,4.20
2022-07-28T22:35:10.991Z,4.82
2022-07-28T22:37:40.091Z,4.75
2022-07-28T22:40:09.572Z,4.78
2022-07-28T22:42:40.020Z,4.30
2022-07-28T22:45:09.574Z,4.50
2022-07-28T22:47:38.407Z,4.38
2022-07-28T22:50:07.721Z,4.68
2022-07-28T22:52:36.551Z,4.30
2022-07-28T22:55:05.828Z,4.47
2022-07-28T22:57:34.685Z,4.57
2022-07-28T23:00:05.570Z,5.10
2022-07-28T23:02:36.648Z,4.25
2022-07-28T23:05:06.100Z,4.50
2022-07-28T23:07:53.237Z,4.93
2022-07-28T23:10:24.055Z,4.70
2022-07-28T23:12:54.294Z,4.25
2022-07-28T23:15:40.470Z,4.53
2022-07-28T23:18:11.485Z,4.50
2022-07-28T23:20:40.503Z,3.80
2022-07-28T23:23:27.942Z,4.17
2022-07-28T23:25:56.915Z,4.22
2022-07-28T23:28:25.815Z,4.70
2022-07-28T23:30:56.235Z,4.28
2022-07-28T23:33:55.697Z,4.07
2022-07-28T23:36:16.947Z,4.07
2022-07-28T23:38:56.052Z,4.40
2022-07-28T23:41:24.919Z,4.47
2022-07-28T23:43:53.914Z,4.38
2022-07-28T23:46:24.298Z,3.88
2022-07-28T23:48:53.230Z,4.20
2022-07-28T23:51:32.058Z,4.65
2022-07-28T23:54:14.272Z,4.70
2022-07-28T23:56:43.910Z,4.72
2022-07-28T23:59:14.532Z,4.47
